Time;durP1;ratioP1;P1;durP2;ratioP2;P2;SDS_P1;SDS_P2;PMS_P1;PMS_P2;Temp;Humidity;BMP_temperature;BMP_pressure;BME280_temperature;BME280_humidity;BME280_pressure;Samples;Min_cycle;Max_cycle;Signal;HPM_P1;HPM_P2
2023/01/09 00:01:44;;;;;;;5.50;2.50;;;;;;;1.53;88.85;101702.84;107582;1254;110032;-60
2023/01/09 00:04:13;;;;;;;5.20;2.30;;;;;;;1.55;88.66;101703.13;107643;1253;107817;-59
2023/01/09 00:06:52;;;;;;;5.40;3.00;;;;;;;1.55;88.55;101700.84;107598;1252;96600;-59
2023/01/09 00:09:23;;;;;;;4.30;2.50;;;;;;;1.56;88.70;101700.27;107641;1254;96369;-59
2023/01/09 00:11:53;;;;;;;5.60;2.50;;;;;;;1.58;88.55;101701.60;107620;1254;110582;-59
2023/01/09 00:14:23;;;;;;;4.00;2.60;;;;;;;1.58;88.48;101698.95;107649;1253;110122;-58
2023/01/09 00:16:54;;;;;;;2.40;2.00;;;;;;;1.59;88.43;101696.97;107532;1254;108739;-58
2023/01/09 00:19:22;;;;;;;7.30;3.20;;;;;;;1.61;88.60;101687.18;107565;1253;96479;-59
2023/01/09 00:21:50;;;;;;;5.10;2.90;;;;;;;1.64;88.58;101684.10;107617;1253;96609;-59
2023/01/09 00:24:19;;;;;;;2.90;2.60;;;;;;;1.64;88.67;101679.48;107620;1252;109530;-60
2023/01/09 00:26:47;;;;;;;2.70;2.00;;;;;;;1.65;88.75;101677.32;107604;1254;109744;-60
2023/01/09 00:29:16;;;;;;;3.30;2.10;;;;;;;1.66;88.70;101677.44;107534;1254;109063;-60
2023/01/09 00:31:45;;;;;;;4.20;2.50;;;;;;;1.69;88.81;101676.64;107568;1254;96587;-59
2023/01/09 00:34:13;;;;;;;3.60;2.30;;;;;;;1.72;88.63;101681.84;107557;1256;96398;-59
2023/01/09 00:36:43;;;;;;;2.40;2.20;;;;;;;1.75;88.54;101676.61;107619;1254;110266;-60
2023/01/09 00:39:11;;;;;;;3.00;2.10;;;;;;;1.77;88.66;101674.39;107620;1254;110079;-59
2023/01/09 00:41:45;;;;;;;2.80;2.30;;;;;;;1.77;88.77;101667.14;107603;1252;108510;-59
2023/01/09 00:44:21;;;;;;;2.40;2.20;;;;;;;1.78;88.78;101666.93;107618;1253;96482;-60
2023/01/09 00:46:55;;;;;;;2.80;1.80;;;;;;;1.80;88.50;101659.61;107615;1253;96478;-60
2023/01/09 00:49:24;;;;;;;5.40;2.10;;;;;;;1.81;89.02;101657.98;107597;1253;111091;-59
2023/01/09 00:51:54;;;;;;;5.90;2.50;;;;;;;1.80;88.95;101658.00;107584;1253;108497;-59
2023/01/09 00:54:22;;;;;;;4.80;2.30;;;;;;;1.83;88.80;101644.64;107613;1253;108517;-60
2023/01/09 00:56:50;;;;;;;4.00;2.10;;;;;;;1.84;88.89;101644.04;107571;1254;96526;-59
2023/01/09 00:59:19;;;;;;;2.60;1.80;;;;;;;1.86;88.83;101638.11;107602;1254;97125;-60
2023/01/09 01:01:48;;;;;;;5.30;2.20;;;;;;;1.89;88.86;101636.80;107593;1253;110452;-59
2023/01/09 01:09:50;;;;;;;3.10;2.30;;;;;;;1.91;88.93;101622.04;107579;1253;96485;-59
2023/01/09 01:12:18;;;;;;;3.20;2.50;;;;;;;1.89;89.86;101611.11;107540;1253;96491;-59
2023/01/09 01:14:47;;;;;;;3.20;2.20;;;;;;;1.90;89.59;101609.36;107619;1254;111160;-59
2023/01/09 01:17:15;;;;;;;2.90;2.60;;;;;;;1.91;89.77;101608.08;107572;1253;110118;-60
2023/01/09 01:19:43;;;;;;;7.40;2.10;;;;;;;1.89;90.04;101599.67;107615;1254;108051;-60
2023/01/09 01:22:11;;;;;;;5.60;1.80;;;;;;;1.85;90.55;101599.26;107600;1254;96491;-59
2023/01/09 01:24:40;;;;;;;5.00;2.80;;;;;;;1.84;90.82;101597.72;107604;1254;96468;-59
2023/01/09 01:27:08;;;;;;;3.70;2.40;;;;;;;1.84;91.33;101601.80;107544;1254;111038;-59
2023/01/09 01:29:37;;;;;;;6.40;3.50;;;;;;;1.84;91.77;101592.77;107641;1253;110213;-59
2023/01/09 01:32:06;;;;;;;6.70;2.50;;;;;;;1.84;91.92;101584.46;107597;1254;108347;-59
2023/01/09 01:34:35;;;;;;;7.10;2.40;;;;;;;1.83;92.11;101578.64;107566;1254;96488;-65
2023/01/09 01:37:04;;;;;;;6.60;2.60;;;;;;;1.85;92.72;101575.91;107566;1254;96388;-58
2023/01/09 01:39:32;;;;;;;5.00;3.00;;;;;;;1.86;92.98;101576.41;107588;1253;110505;-60
2023/01/09 01:42:05;;;;;;;5.90;2.70;;;;;;;1.89;93.03;101571.36;107565;1254;109521;-60
2023/01/09 01:45:04;;;;;;;4.00;2.90;;;;;;;1.91;93.54;101558.89;107555;1253;108133;-59
2023/01/09 01:47:45;;;;;;;6.70;2.90;;;;;;;1.95;93.31;101560.68;107547;1254;96491;-60
2023/01/09 01:50:17;;;;;;;6.10;3.20;;;;;;;1.98;93.80;101565.14;107614;1254;97022;-59
2023/01/09 01:52:51;;;;;;;12.00;3.50;;;;;;;2.01;93.54;101563.25;107481;1253;110691;-59
2023/01/09 01:55:20;;;;;;;4.10;2.80;;;;;;;2.05;93.60;101558.53;107452;1253;109749;-60
2023/01/09 01:57:56;;;;;;;4.90;3.30;;;;;;;2.08;93.72;101552.92;107525;1253;108292;-59
2023/01/09 02:00:36;;;;;;;5.00;3.00;;;;;;;2.11;94.15;101548.38;107482;1254;96947;-59
2023/01/09 02:03:06;;;;;;;4.70;2.90;;;;;;;2.12;93.58;101552.35;107565;1253;96483;-60
2023/01/09 02:05:37;;;;;;;7.60;3.40;;;;;;;2.15;93.65;101548.02;107534;1254;111061;-60
2023/01/09 02:08:06;;;;;;;4.10;2.90;;;;;;;2.18;93.96;101542.60;107520;1253;110158;-59
2023/01/09 02:10:38;;;;;;;6.60;3.40;;;;;;;2.18;94.01;101540.80;107511;1253;107716;-59
2023/01/09 02:13:08;;;;;;;5.00;3.40;;;;;;;2.17;93.98;101534.64;107503;1253;96474;-60
2023/01/09 02:16:00;;;;;;;5.30;3.10;;;;;;;2.18;94.02;101539.58;107578;1253;96390;-58
2023/01/09 02:18:47;;;;;;;6.90;3.90;;;;;;;2.19;94.33;101522.38;107535;1253;111164;-59
2023/01/09 02:21:32;;;;;;;5.10;3.50;;;;;;;2.21;94.29;101516.82;107517;1253;109052;-60
2023/01/09 02:24:21;;;;;;;6.20;4.00;;;;;;;2.21;94.84;101520.19;107508;1253;108673;-61
2023/01/09 02:27:06;;;;;;;7.80;4.10;;;;;;;2.23;94.79;101520.11;107498;1253;96507;-59
2023/01/09 02:29:40;;;;;;;5.60;3.80;;;;;;;2.25;94.87;101507.81;107548;1253;96491;-60
2023/01/09 02:32:26;;;;;;;7.70;4.50;;;;;;;2.25;95.15;101506.18;107549;1253;109326;-59
2023/01/09 02:35:16;;;;;;;10.10;4.40;;;;;;;2.27;95.21;101494.23;107569;1252;109672;-59
2023/01/09 02:38:05;;;;;;;7.10;3.50;;;;;;;2.32;95.51;101490.69;107588;1254;108592;-58
2023/01/09 02:41:03;;;;;;;11.60;4.60;;;;;;;2.36;95.72;101487.88;107564;1252;96481;-60
2023/01/09 02:43:32;;;;;;;4.40;3.70;;;;;;;2.39;95.87;101483.82;107483;1256;96613;-59
2023/01/09 02:46:00;;;;;;;10.90;4.50;;;;;;;2.41;95.74;101485.51;107590;1253;110912;-60
2023/01/09 02:48:30;;;;;;;13.00;5.10;;;;;;;2.45;96.14;101480.05;107606;1254;109846;-59
2023/01/09 02:51:07;;;;;;;6.20;4.50;;;;;;;2.49;96.02;101476.86;107603;1253;107286;-60
2023/01/09 02:53:41;;;;;;;7.40;4.60;;;;;;;2.53;95.72;101474.75;107571;1254;96494;-59
2023/01/09 02:56:15;;;;;;;8.30;5.50;;;;;;;2.58;96.23;101472.21;107572;1254;96383;-59
2023/01/09 02:58:49;;;;;;;7.90;5.40;;;;;;;2.66;96.33;101468.52;107562;1254;110839;-58
2023/01/09 03:01:23;;;;;;;8.40;5.50;;;;;;;2.71;96.38;101466.86;107618;1254;109184;-60
2023/01/09 03:04:18;;;;;;;8.80;5.40;;;;;;;2.77;95.82;101467.13;107608;1253;108645;-60
2023/01/09 03:06:57;;;;;;;10.30;5.50;;;;;;;2.83;95.86;101457.30;107572;1254;96471;-60
2023/01/09 03:09:30;;;;;;;7.90;5.10;;;;;;;2.90;95.93;101459.48;107570;1252;97055;-60
2023/01/09 03:12:08;;;;;;;11.30;5.20;;;;;;;2.94;95.79;101456.65;107632;1254;109557;-58
2023/01/09 03:14:42;;;;;;;8.70;5.40;;;;;;;2.97;95.50;101450.66;107552;1255;109776;-60
2023/01/09 03:17:14;;;;;;;6.40;5.00;;;;;;;3.01;95.30;101443.92;107570;1253;108781;-60
2023/01/09 03:19:45;;;;;;;12.00;5.70;;;;;;;3.03;95.05;101442.94;107546;1254;96633;-59
2023/01/09 03:22:13;;;;;;;9.80;5.50;;;;;;;3.06;95.26;101449.70;107574;1254;97026;-59
2023/01/09 03:24:41;;;;;;;9.10;5.50;;;;;;;3.14;95.35;101444.55;107615;1253;110212;-60
2023/01/09 03:27:10;;;;;;;10.40;6.00;;;;;;;3.18;95.12;101444.58;107565;1254;110193;-59
2023/01/09 03:29:38;;;;;;;9.30;5.40;;;;;;;3.21;94.95;101445.81;107545;1254;108518;-61
2023/01/09 03:32:07;;;;;;;9.40;5.50;;;;;;;3.24;94.96;101449.04;107571;1254;96498;-60
2023/01/09 03:34:36;;;;;;;6.60;4.80;;;;;;;3.29;94.64;101446.70;107520;1254;96642;-60
2023/01/09 03:37:05;;;;;;;8.00;5.70;;;;;;;3.35;94.73;101443.20;107529;1254;109714;-60
2023/01/09 03:39:33;;;;;;;9.90;5.50;;;;;;;3.39;94.78;101442.48;107566;1254;109644;-59
2023/01/09 03:42:02;;;;;;;9.00;5.00;;;;;;;3.41;94.59;101436.55;107546;1254;107652;-58
2023/01/09 03:44:30;;;;;;;7.20;5.00;;;;;;;3.47;94.57;101432.91;107532;1254;96481;-60
2023/01/09 03:46:58;;;;;;;8.80;4.80;;;;;;;3.50;94.45;101437.17;107564;1253;96478;-59
2023/01/09 03:49:26;;;;;;;7.60;4.90;;;;;;;3.54;94.25;101433.83;107540;1254;110792;-58
2023/01/09 03:51:55;;;;;;;7.00;5.00;;;;;;;3.53;93.49;101438.46;107565;1254;109267;-58
2023/01/09 03:54:23;;;;;;;13.50;5.40;;;;;;;3.56;93.46;101440.81;107570;1254;108131;-59
2023/01/09 03:56:52;;;;;;;9.70;5.80;;;;;;;3.61;93.53;101440.39;107547;1254;96571;-59
2023/01/09 03:59:20;;;;;;;6.30;5.40;;;;;;;3.67;93.84;101433.55;107596;1256;96577;-59
2023/01/09 04:01:48;;;;;;;9.70;6.00;;;;;;;3.73;93.53;101436.45;107591;1254;110634;-58
2023/01/09 04:04:17;;;;;;;9.60;6.60;;;;;;;3.78;93.56;101437.26;107592;1254;109240;-59
2023/01/09 04:06:46;;;;;;;11.50;7.20;;;;;;;3.84;93.78;101437.34;107550;1254;107727;-59
2023/01/09 04:09:14;;;;;;;10.90;6.50;;;;;;;3.89;93.64;101433.16;107578;1253;96597;-59
2023/01/09 04:11:42;;;;;;;11.50;6.80;;;;;;;3.96;93.50;101435.86;107552;1256;97013;-59
2023/01/09 04:14:11;;;;;;;10.20;7.50;;;;;;;4.11;93.83;101437.23;107544;1254;109845;-59
2023/01/09 04:16:39;;;;;;;13.40;7.60;;;;;;;4.30;93.55;101429.52;107595;1254;110213;-59
2023/01/09 04:19:08;;;;;;;12.70;7.60;;;;;;;4.41;93.19;101426.63;107575;1254;108254;-59
2023/01/09 04:21:37;;;;;;;15.20;9.20;;;;;;;4.51;92.70;101427.38;107529;1253;96541;-59
2023/01/09 04:24:05;;;;;;;8.20;6.30;;;;;;;4.59;92.50;101422.68;107587;1256;96565;-59
2023/01/09 04:26:33;;;;;;;11.40;6.70;;;;;;;4.68;91.55;101415.09;107589;1254;110971;-59
2023/01/09 04:29:02;;;;;;;9.70;6.30;;;;;;;4.77;90.90;101415.51;107564;1254;109247;-60
2023/01/09 04:31:31;;;;;;;10.50;6.10;;;;;;;4.88;89.67;101413.15;107602;1253;107755;-59
2023/01/09 04:33:59;;;;;;;9.50;5.90;;;;;;;5.00;88.69;101408.39;107545;1254;96486;-60
2023/01/09 04:36:28;;;;;;;7.70;4.90;;;;;;;5.08;88.06;101407.98;107623;1254;96655;-61
2023/01/09 04:38:56;;;;;;;7.90;5.70;;;;;;;5.15;87.70;101407.23;107577;1252;110506;-60
2023/01/09 04:44:12;;;;;;;6.50;4.50;;;;;;;5.28;86.36;101401.70;107525;1254;107057;-59
2023/01/09 04:46:41;;;;;;;11.00;5.30;;;;;;;5.31;86.17;101405.61;107542;1253;96495;-60
2023/01/09 04:49:10;;;;;;;6.50;5.00;;;;;;;5.34;85.96;101402.80;107554;1254;96378;-60
2023/01/09 04:51:38;;;;;;;6.30;4.70;;;;;;;5.38;85.22;101403.83;107568;1256;110359;-61
2023/01/09 04:54:06;;;;;;;7.00;4.40;;;;;;;5.43;84.54;101405.65;107561;1254;111904;-60
2023/01/09 04:56:36;;;;;;;7.20;4.00;;;;;;;5.46;84.34;101396.43;107512;1256;108269;-60
2023/01/09 04:59:06;;;;;;;16.70;4.70;;;;;;;5.48;83.88;101400.73;107550;1254;96482;-61
2023/01/09 05:01:34;;;;;;;6.90;4.30;;;;;;;5.49;83.98;101402.64;107507;1254;96360;-59
2023/01/09 05:04:04;;;;;;;4.30;3.80;;;;;;;5.53;83.38;101408.83;107475;1254;111692;-61
2023/01/09 05:06:33;;;;;;;5.60;4.00;;;;;;;5.55;83.28;101399.67;107584;1254;109082;-61
2023/01/09 05:09:02;;;;;;;8.80;4.20;;;;;;;5.55;83.42;101396.63;107521;1254;108297;-59
2023/01/09 05:11:30;;;;;;;4.70;3.70;;;;;;;5.55;82.99;101388.45;107503;1256;96485;-59
2023/01/09 05:13:58;;;;;;;8.80;4.20;;;;;;;5.54;82.73;101386.51;107541;1254;96359;-60
2023/01/09 05:16:26;;;;;;;6.40;4.10;;;;;;;5.54;82.75;101385.65;107473;1254;109481;-59
2023/01/09 05:18:56;;;;;;;4.20;3.70;;;;;;;5.55;82.43;101388.94;107558;1254;109733;-60
2023/01/09 05:21:24;;;;;;;6.30;4.10;;;;;;;5.55;82.20;101381.84;107464;1253;108438;-59
2023/01/09 05:23:52;;;;;;;4.00;3.40;;;;;;;5.55;82.16;101374.92;107483;1256;96638;-60
2023/01/09 05:26:22;;;;;;;7.20;3.50;;;;;;;5.56;81.71;101373.09;107579;1254;96535;-61
2023/01/09 05:28:53;;;;;;;6.10;3.40;;;;;;;5.56;81.76;101370.80;107601;1254;110445;-60
2023/01/09 05:31:23;;;;;;;5.20;3.70;;;;;;;5.55;81.66;101365.29;107550;1253;108841;-60
2023/01/09 05:33:52;;;;;;;4.70;3.50;;;;;;;5.56;81.45;101367.94;107543;1254;108139;-60
2023/01/09 05:36:21;;;;;;;11.40;3.50;;;;;;;5.56;81.32;101365.80;107533;1254;96488;-60
2023/01/09 05:38:49;;;;;;;6.80;3.30;;;;;;;5.56;81.31;101362.59;107548;1253;96366;-59
2023/01/09 05:41:18;;;;;;;4.60;3.20;;;;;;;5.57;80.72;101365.19;107591;1254;110474;-61
2023/01/09 05:43:47;;;;;;;5.40;3.20;;;;;;;5.58;80.68;101359.80;107572;1253;111073;-60
2023/01/09 05:46:15;;;;;;;4.70;3.50;;;;;;;5.60;80.59;101359.64;107516;1254;110188;-59
2023/01/09 05:48:44;;;;;;;12.10;3.40;;;;;;;5.61;80.43;101360.86;107587;1254;96478;-60
2023/01/09 05:51:12;;;;;;;3.30;2.80;;;;;;;5.61;80.54;101357.08;107559;1254;97003;-60
2023/01/09 05:53:40;;;;;;;5.10;3.20;;;;;;;5.65;80.15;101358.28;107559;1254;109834;-59
2023/01/09 05:56:08;;;;;;;4.90;3.20;;;;;;;5.67;79.89;101361.95;107559;1254;109750;-60
2023/01/09 05:58:39;;;;;;;7.90;3.60;;;;;;;5.69;79.98;101354.52;107516;1254;108108;-60
2023/01/09 06:01:08;;;;;;;7.50;4.20;;;;;;;5.70;79.86;101357.70;107558;1254;96475;-60
2023/01/09 06:03:36;;;;;;;6.70;4.10;;;;;;;5.71;79.83;101353.52;107588;1254;98205;-60
2023/01/09 06:06:06;;;;;;;5.10;3.60;;;;;;;5.72;79.69;101353.83;107563;1254;110946;-59
2023/01/09 06:08:34;;;;;;;5.50;3.70;;;;;;;5.74;79.63;101353.52;107577;1256;109691;-59
2023/01/09 06:11:02;;;;;;;9.10;4.00;;;;;;;5.77;79.28;101352.98;107547;1254;108208;-60
2023/01/09 06:13:31;;;;;;;6.50;3.70;;;;;;;5.79;79.37;101355.89;107556;1254;96568;-60
2023/01/09 06:16:00;;;;;;;5.70;3.60;;;;;;;5.82;79.43;101361.98;107576;1254;97010;-62
2023/01/09 06:18:28;;;;;;;7.70;4.30;;;;;;;5.83;79.50;101362.08;107600;1254;109984;-61
2023/01/09 06:20:57;;;;;;;9.60;4.90;;;;;;;5.87;79.05;101362.17;107566;1253;109796;-60
2023/01/09 06:23:25;;;;;;;6.40;4.00;;;;;;;5.91;79.04;101360.20;107569;1256;109052;-60
2023/01/09 06:25:53;;;;;;;6.30;4.30;;;;;;;5.93;78.94;101366.80;107538;1254;96469;-61
2023/01/09 06:28:21;;;;;;;6.10;3.60;;;;;;;5.97;78.75;101368.89;107568;1254;96379;-61
2023/01/09 06:30:51;;;;;;;4.80;3.70;;;;;;;6.02;78.58;101366.85;107555;1256;110576;-60
2023/01/09 06:33:20;;;;;;;5.20;3.50;;;;;;;6.05;78.46;101371.99;107550;1254;109830;-60
2023/01/09 06:35:48;;;;;;;6.50;3.70;;;;;;;6.09;78.51;101374.11;107549;1254;108814;-59
2023/01/09 06:38:17;;;;;;;7.00;4.10;;;;;;;6.13;78.30;101373.73;107548;1256;96513;-60
2023/01/09 06:40:45;;;;;;;7.10;3.80;;;;;;;6.15;78.39;101379.76;107559;1254;96363;-60
2023/01/09 06:43:14;;;;;;;7.20;3.70;;;;;;;6.19;78.34;101374.56;107613;1254;111118;-60
2023/01/09 06:45:42;;;;;;;5.30;3.60;;;;;;;6.22;78.43;101370.84;107578;1256;109894;-61
2023/01/09 06:48:11;;;;;;;5.40;4.00;;;;;;;6.25;78.24;101375.99;107524;1253;106797;-60
2023/01/09 06:50:39;;;;;;;6.10;3.20;;;;;;;6.29;77.72;101384.67;107592;1254;97011;-60
2023/01/09 06:53:09;;;;;;;5.90;3.70;;;;;;;6.32;77.61;101379.85;107565;1256;96462;-60
2023/01/09 06:55:37;;;;;;;4.90;3.40;;;;;;;6.36;77.13;101374.08;107570;1254;110146;-61
2023/01/09 06:58:06;;;;;;;7.10;4.20;;;;;;;6.38;77.19;101371.09;107550;1253;109196;-59
2023/01/09 07:00:35;;;;;;;10.70;3.70;;;;;;;6.40;77.26;101368.33;107531;1253;108668;-60
2023/01/09 07:03:04;;;;;;;8.20;3.80;;;;;;;6.44;77.13;101369.34;107431;1254;96580;-62
2023/01/09 07:05:38;;;;;;;10.40;4.30;;;;;;;6.47;77.03;101365.95;107527;1254;97052;-60
2023/01/09 07:08:08;;;;;;;5.40;3.60;;;;;;;6.50;76.42;101362.15;107548;1255;108884;-61
2023/01/09 07:10:36;;;;;;;9.10;4.00;;;;;;;6.50;76.64;101359.64;107573;1258;110364;-60
2023/01/09 07:13:05;;;;;;;9.60;4.60;;;;;;;6.52;76.64;101358.28;107525;1259;107780;-60
2023/01/09 07:15:33;;;;;;;6.80;4.20;;;;;;;6.60;76.08;101357.30;107517;1259;96488;-59
2023/01/09 07:18:02;;;;;;;6.20;3.40;;;;;;;6.65;75.84;101351.23;107494;1254;96593;-60
2023/01/09 07:20:30;;;;;;;5.10;3.30;;;;;;;6.70;75.56;101348.25;107502;1259;110049;-60
2023/01/09 07:22:59;;;;;;;14.10;4.00;;;;;;;6.73;75.75;101347.17;107521;1254;109900;-61
2023/01/09 07:25:27;;;;;;;7.50;3.90;;;;;;;6.77;75.67;101343.94;107482;1254;109267;-60
2023/01/09 07:27:55;;;;;;;8.50;3.70;;;;;;;6.81;75.15;101345.83;107520;1254;98437;-59
2023/01/09 07:30:24;;;;;;;6.00;3.70;;;;;;;6.84;74.79;101347.60;107538;1259;96504;-59
2023/01/09 07:32:52;;;;;;;8.60;3.70;;;;;;;6.85;74.61;101342.56;107519;1253;110282;-59
2023/01/09 07:35:21;;;;;;;6.60;3.30;;;;;;;6.85;74.58;101341.45;107582;1254;109094;-59
2023/01/09 07:37:49;;;;;;;8.00;3.90;;;;;;;6.86;74.34;101346.04;107549;1254;108881;-59
2023/01/09 07:40:18;;;;;;;7.30;3.90;;;;;;;6.87;74.45;101339.55;107539;1255;96585;-59
2023/01/09 07:42:46;;;;;;;9.80;4.40;;;;;;;6.88;74.38;101338.05;107557;1257;96586;-60
2023/01/09 07:45:14;;;;;;;3.60;3.20;;;;;;;6.89;74.40;101345.64;107570;1256;110495;-61
2023/01/09 07:47:43;;;;;;;5.70;3.80;;;;;;;6.90;74.56;101340.42;107538;1254;109665;-60
2023/01/09 07:50:12;;;;;;;6.20;4.00;;;;;;;6.94;74.66;101343.09;107509;1254;109467;-60
2023/01/09 07:52:40;;;;;;;11.00;3.80;;;;;;;6.97;74.45;101347.46;107527;1257;96517;-59
2023/01/09 07:55:09;;;;;;;8.10;3.50;;;;;;;7.04;74.13;101349.52;107572;1256;96971;-60
2023/01/09 07:57:37;;;;;;;6.50;3.50;;;;;;;7.11;73.79;101346.97;107585;1256;110380;-61
2023/01/09 08:00:12;;;;;;;7.40;3.60;;;;;;;7.13;73.74;101354.15;107581;1256;110479;-61
2023/01/09 08:02:40;;;;;;;6.10;3.60;;;;;;;7.17;73.25;101353.87;107548;1257;108852;-59
2023/01/09 08:05:13;;;;;;;8.90;4.00;;;;;;;7.19;73.26;101359.26;107542;1255;96370;-61
2023/01/09 08:07:41;;;;;;;10.40;2.90;;;;;;;7.23;73.09;101355.97;107578;1253;96571;-59
2023/01/09 08:10:11;;;;;;;6.40;3.00;;;;;;;7.26;72.83;101354.51;107601;1254;110691;-60
2023/01/09 08:12:42;;;;;;;5.50;3.20;;;;;;;7.29;72.90;101358.83;107567;1254;110672;-60
2023/01/09 08:15:12;;;;;;;8.90;3.70;;;;;;;7.32;72.55;101356.25;107575;1254;108702;-59
2023/01/09 08:17:42;;;;;;;6.30;3.10;;;;;;;7.35;72.32;101369.09;107584;1254;96408;-60
2023/01/09 08:20:13;;;;;;;9.40;4.30;;;;;;;7.36;72.00;101360.46;107588;1256;96485;-60
2023/01/09 08:22:48;;;;;;;7.90;2.90;;;;;;;7.37;71.79;101360.23;107552;1257;110599;-60
2023/01/09 08:25:17;;;;;;;12.30;2.90;;;;;;;7.40;71.66;101352.06;107632;1254;108311;-60
2023/01/09 08:27:46;;;;;;;8.70;3.10;;;;;;;7.40;71.35;101358.46;107578;1256;109284;-60
2023/01/09 08:30:16;;;;;;;6.00;3.20;;;;;;;7.41;71.27;101363.20;107560;1254;96488;-59
2023/01/09 08:32:52;;;;;;;7.60;2.70;;;;;;;7.40;71.52;101355.74;107571;1256;96511;-61
2023/01/09 08:35:20;;;;;;;5.00;3.10;;;;;;;7.39;71.26;101356.54;107567;1257;111211;-60
2023/01/09 08:37:49;;;;;;;10.50;3.00;;;;;;;7.41;71.36;101352.52;107521;1254;109259;-60
2023/01/09 08:40:18;;;;;;;9.00;2.80;;;;;;;7.43;71.20;101349.89;107520;1254;107704;-59
2023/01/09 08:48:21;;;;;;;9.90;3.00;;;;;;;7.47;70.93;101349.41;107586;1254;110465;-59
2023/01/09 08:50:49;;;;;;;11.00;3.80;;;;;;;7.49;70.75;101351.77;107559;1254;109215;-59
2023/01/09 08:53:18;;;;;;;7.00;2.90;;;;;;;7.49;71.04;101347.52;107533;1257;107767;-58
2023/01/09 08:55:46;;;;;;;6.90;3.10;;;;;;;7.51;70.66;101349.48;107548;1254;96395;-59
2023/01/09 08:58:14;;;;;;;7.30;2.60;;;;;;;7.52;70.54;101346.93;107564;1254;96561;-61
2023/01/09 09:00:43;;;;;;;9.80;3.60;;;;;;;7.51;70.58;101350.22;107574;1254;110909;-59
2023/01/09 09:03:11;;;;;;;7.70;3.40;;;;;;;7.51;70.74;101345.42;107545;1257;109263;-59
2023/01/09 09:05:40;;;;;;;5.50;2.50;;;;;;;7.50;70.76;101342.25;107551;1254;108223;-59
2023/01/09 09:08:08;;;;;;;8.30;2.90;;;;;;;7.50;71.01;101337.94;107472;1254;96505;-60
2023/01/09 09:10:37;;;;;;;15.30;4.90;;;;;;;7.53;70.96;101335.46;107502;1254;96511;-60
2023/01/09 09:13:05;;;;;;;7.80;3.00;;;;;;;7.53;70.87;101334.23;107520;1254;110468;-60
2023/01/09 09:15:34;;;;;;;10.10;3.40;;;;;;;7.51;70.95;101328.23;107542;1254;109323;-59
2023/01/09 09:18:05;;;;;;;9.30;3.30;;;;;;;7.49;70.98;101320.73;107477;1254;107140;-60
2023/01/09 09:20:36;;;;;;;5.30;3.30;;;;;;;7.47;70.95;101320.16;107461;1254;96491;-60
2023/01/09 09:23:07;;;;;;;7.70;2.80;;;;;;;7.43;71.19;101307.77;107468;1254;97016;-63
2023/01/09 09:25:37;;;;;;;12.70;3.60;;;;;;;7.43;70.86;101308.27;107491;1254;110162;-60
2023/01/09 09:28:06;;;;;;;18.80;4.60;;;;;;;7.41;70.87;101296.27;107486;1254;109695;-59
2023/01/09 09:30:36;;;;;;;19.40;3.80;;;;;;;7.41;70.65;101291.64;107279;1254;107822;-58
2023/01/09 09:33:05;;;;;;;13.10;3.80;;;;;;;7.41;70.68;101291.30;107438;1254;96565;-58
2023/01/09 09:35:34;;;;;;;10.40;3.10;;;;;;;7.42;70.86;101282.66;107483;1257;96535;-60
2023/01/09 09:38:04;;;;;;;16.90;2.90;;;;;;;7.45;70.52;101283.35;107448;1255;110859;-60
2023/01/09 09:41:00;;;;;;;9.40;3.50;;;;;;;7.48;70.18;101276.90;107491;1254;109844;-59
2023/01/09 09:46:52;;;;;;;8.50;2.80;;;;;;;7.56;69.64;101271.54;107448;1255;96436;-58
2023/01/09 09:49:31;;;;;;;14.20;2.50;;;;;;;7.57;70.02;101265.59;107486;1254;96565;-58
2023/01/09 09:52:05;;;;;;;9.00;2.30;;;;;;;7.61;69.57;101273.89;107468;1257;111727;-60
2023/01/09 09:54:45;;;;;;;13.70;2.60;;;;;;;7.64;69.42;101271.91;107468;1254;109414;-59
2023/01/09 09:57:20;;;;;;;5.10;2.10;;;;;;;7.65;69.82;101265.77;107458;1254;107801;-59
2023/01/09 09:59:50;;;;;;;7.20;2.40;;;;;;;7.68;69.35;101262.69;107476;1254;96475;-60
2023/01/09 10:02:31;;;;;;;11.00;2.20;;;;;;;7.71;69.19;101261.99;107473;1257;96388;-60
2023/01/09 10:05:26;;;;;;;8.80;2.80;;;;;;;7.73;68.91;101270.57;107498;1257;110966;-61
2023/01/09 10:08:01;;;;;;;10.70;2.20;;;;;;;7.75;68.70;101265.96;107450;1254;110302;-60
2023/01/09 10:10:52;;;;;;;6.10;3.10;;;;;;;7.76;68.88;101258.56;107471;1254;108305;-60
2023/01/09 10:16:34;;;;;;;5.80;2.50;;;;;;;7.78;68.71;101259.68;107491;1254;96430;-61
2023/01/09 10:19:23;;;;;;;17.20;3.40;;;;;;;7.77;68.50;101260.81;107482;1254;111076;-60
2023/01/09 10:22:00;;;;;;;5.60;2.80;;;;;;;7.78;68.52;101249.89;107486;1254;110218;-60
2023/01/09 10:24:43;;;;;;;16.00;3.10;;;;;;;7.79;68.23;101251.59;107484;1254;108324;-59
2023/01/09 10:27:47;;;;;;;7.30;2.70;;;;;;;7.79;68.28;101248.37;107425;1254;97125;-59
2023/01/09 10:30:30;;;;;;;17.30;3.10;;;;;;;7.79;68.16;101246.77;107548;1254;96568;-59
2023/01/09 10:33:16;;;;;;;6.50;2.40;;;;;;;7.81;68.08;101237.86;107578;1254;108525;-58
2023/01/09 10:35:57;;;;;;;8.10;2.30;;;;;;;7.81;68.23;101236.05;107565;1254;109268;-60
2023/01/09 10:38:36;;;;;;;7.60;2.20;;;;;;;7.82;68.06;101226.52;107540;1256;108296;-60
2023/01/09 10:41:11;;;;;;;12.00;2.90;;;;;;;7.83;68.06;101219.67;107572;1254;96340;-61
2023/01/09 10:43:45;;;;;;;11.00;2.40;;;;;;;7.83;68.08;101225.03;106796;1254;988011;-61
2023/01/09 10:46:40;;;;;;;10.50;3.30;;;;;;;7.86;67.81;101221.31;107612;1254;109211;-61
2023/01/09 10:49:15;;;;;;;9.00;2.70;;;;;;;7.88;67.91;101225.45;107604;1254;110129;-59
2023/01/09 10:51:44;;;;;;;15.70;2.80;;;;;;;7.87;67.84;101211.40;107603;1254;108235;-60
2023/01/09 10:54:17;;;;;;;14.50;2.90;;;;;;;7.87;67.65;101214.06;107541;1254;96480;-60
2023/01/09 10:56:57;;;;;;;;;;;;;;;7.87;67.91;101209.95;107569;1252;96482;-59
2023/01/09 10:59:26;;;;;;;11.60;2.80;;;;;;;7.86;68.21;101198.23;107595;1254;110270;-59
2023/01/09 11:01:54;;;;;;;12.90;3.40;;;;;;;7.87;68.16;101195.85;107561;1254;109746;-60
2023/01/09 11:04:30;;;;;;;20.30;3.10;;;;;;;7.87;68.31;101190.13;107530;1254;108709;-60
2023/01/09 11:07:20;;;;;;;6.30;3.00;;;;;;;7.87;68.27;101191.96;107502;1252;96482;-60
2023/01/09 11:10:03;;;;;;;5.80;2.60;;;;;;;7.86;68.28;101190.20;107582;1254;96389;-59
2023/01/09 11:12:33;;;;;;;15.00;3.00;;;;;;;7.86;68.13;101186.64;107590;1254;110381;-59
2023/01/09 11:15:22;;;;;;;16.80;2.50;;;;;;;7.86;68.08;101171.30;107570;1254;109839;-60
2023/01/09 11:17:50;;;;;;;13.20;2.90;;;;;;;7.83;68.38;101162.74;107556;1257;107256;-60
2023/01/09 11:20:27;;;;;;;12.40;2.60;;;;;;;7.82;68.42;101163.15;107537;1254;96507;-59
2023/01/09 11:22:57;;;;;;;6.90;2.50;;;;;;;7.80;68.41;101156.47;107586;1254;96510;-60
2023/01/09 11:25:27;;;;;;;18.50;3.20;;;;;;;7.80;68.49;101158.80;107614;1253;109966;-58
2023/01/09 11:28:04;;;;;;;9.40;2.50;;;;;;;7.81;68.47;101159.49;107557;1254;109897;-60
2023/01/09 11:30:35;;;;;;;9.30;2.80;;;;;;;7.81;68.34;101155.72;107600;1254;107544;-59
2023/01/09 11:33:25;;;;;;;11.30;2.90;;;;;;;7.81;68.33;101156.42;107559;1254;97064;-60
2023/01/09 11:35:56;;;;;;;19.80;4.70;;;;;;;7.81;68.29;101151.42;107568;1254;97045;-60
2023/01/09 11:38:25;;;;;;;12.70;3.40;;;;;;;7.82;68.53;101148.67;107562;1254;110500;-61
2023/01/09 11:41:03;;;;;;;11.10;3.10;;;;;;;7.84;68.26;101145.51;107593;1254;109873;-63
2023/01/09 11:43:37;;;;;;;12.60;2.70;;;;;;;7.87;68.02;101141.59;107561;1252;107982;-60
2023/01/09 11:46:10;;;;;;;9.90;2.50;;;;;;;7.86;68.06;101135.91;107590;1256;96395;-60
2023/01/09 11:48:53;;;;;;;17.20;2.80;;;;;;;7.87;68.07;101138.55;107616;1256;97047;-60
2023/01/09 11:51:30;;;;;;;11.30;2.70;;;;;;;7.88;68.32;101138.14;107571;1253;110516;-61
2023/01/09 11:54:11;;;;;;;5.80;2.70;;;;;;;7.90;68.17;101141.90;107496;1257;111026;-60
2023/01/09 11:56:40;;;;;;;10.30;3.00;;;;;;;7.93;68.14;101134.58;107548;1252;108353;-60
2023/01/09 11:59:25;;;;;;;9.20;3.50;;;;;;;7.95;67.94;101135.29;107592;1254;96469;-62
2023/01/09 12:02:29;;;;;;;11.70;3.30;;;;;;;7.97;67.70;101136.70;107553;1257;97014;-60